sensor_id;sensor_type;location;lat;lon;timestamp;pressure;altitude;pressure_sealevel;temperature;humidity
70011;BME280;59543;37.950;-122.338;2023-02-23T00:00:08;100698.53;;;8.86;42.93
70011;BME280;59543;37.950;-122.338;2023-02-23T00:02:46;100705.00;;;8.74;44.15
70011;BME280;59543;37.950;-122.338;2023-02-23T00:05:13;100702.78;;;8.79;44.03
70011;BME280;59543;37.950;-122.338;2023-02-23T00:07:40;100701.59;;;8.72;44.97
70011;BME280;59543;37.950;-122.338;2023-02-23T00:10:08;100692.97;;;8.59;45.46
70011;BME280;59543;37.950;-122.338;2023-02-23T00:12:36;100697.06;;;8.63;45.16
70011;BME280;59543;37.950;-122.338;2023-02-23T00:15:03;100692.59;;;8.73;45.14
70011;BME280;59543;37.950;-122.338;2023-02-23T00:17:29;100686.81;;;8.87;44.77
70011;BME280;59543;37.950;-122.338;2023-02-23T00:19:56;100680.75;;;8.85;43.07
70011;BME280;59543;37.950;-122.338;2023-02-23T00:22:25;100692.44;;;8.75;42.82
70011;BME280;59543;37.950;-122.338;2023-02-23T00:24:51;100680.31;;;8.90;41.92
70011;BME280;59543;37.950;-122.338;2023-02-23T00:27:17;100682.00;;;8.72;42.73
70011;BME280;59543;37.950;-122.338;2023-02-23T00:29:45;100688.91;;;8.74;42.87
70011;BME280;59543;37.950;-122.338;2023-02-23T00:32:14;100685.09;;;8.67;42.25
70011;BME280;59543;37.950;-122.338;2023-02-23T00:34:48;100676.44;;;8.54;41.87
70011;BME280;59543;37.950;-122.338;2023-02-23T00:37:15;100684.06;;;8.49;43.12
70011;BME280;59543;37.950;-122.338;2023-02-23T00:39:41;100676.84;;;8.39;43.25
70011;BME280;59543;37.950;-122.338;2023-02-23T00:42:07;100670.19;;;8.34;43.57
70011;BME280;59543;37.950;-122.338;2023-02-23T00:44:33;100674.88;;;8.41;44.95
70011;BME280;59543;37.950;-122.338;2023-02-23T00:46:59;100680.69;;;8.56;44.86
70011;BME280;59543;37.950;-122.338;2023-02-23T00:49:25;100673.63;;;8.45;45.17
70011;BME280;59543;37.950;-122.338;2023-02-23T00:51:51;100667.28;;;8.46;44.50
70011;BME280;59543;37.950;-122.338;2023-02-23T00:54:17;100668.59;;;8.31;45.06
70011;BME280;59543;37.950;-122.338;2023-02-23T00:56:44;100673.34;;;8.18;46.13
70011;BME280;59543;37.950;-122.338;2023-02-23T00:59:10;100674.47;;;8.15;46.33
70011;BME280;59543;37.950;-122.338;2023-02-23T01:01:37;100671.66;;;8.17;47.07
70011;BME280;59543;37.950;-122.338;2023-02-23T01:04:03;100671.47;;;8.09;47.10
70011;BME280;59543;37.950;-122.338;2023-02-23T01:06:29;100678.09;;;8.05;47.42
70011;BME280;59543;37.950;-122.338;2023-02-23T01:08:55;100677.78;;;7.98;47.59
70011;BME280;59543;37.950;-122.338;2023-02-23T01:11:22;100678.50;;;7.79;47.49
70011;BME280;59543;37.950;-122.338;2023-02-23T01:13:50;100688.84;;;7.84;48.28
70011;BME280;59543;37.950;-122.338;2023-02-23T01:16:17;100691.47;;;7.74;48.64
70011;BME280;59543;37.950;-122.338;2023-02-23T01:18:44;100684.88;;;7.78;48.52
70011;BME280;59543;37.950;-122.338;2023-02-23T01:21:16;100687.22;;;7.71;48.45
70011;BME280;59543;37.950;-122.338;2023-02-23T01:23:42;100690.97;;;7.59;48.29
70011;BME280;59543;37.950;-122.338;2023-02-23T01:26:18;100683.31;;;7.54;48.89
70011;BME280;59543;37.950;-122.338;2023-02-23T01:28:51;100687.28;;;7.60;49.19
70011;BME280;59543;37.950;-122.338;2023-02-23T01:31:18;100692.91;;;7.36;48.81
70011;BME280;59543;37.950;-122.338;2023-02-23T01:33:44;100695.44;;;7.17;49.51
70011;BME280;59543;37.950;-122.338;2023-02-23T01:36:10;100691.25;;;7.24;49.24
70011;BME280;59543;37.950;-122.338;2023-02-23T01:38:37;100693.72;;;7.16;49.52
70011;BME280;59543;37.950;-122.338;2023-02-23T01:41:03;100690.34;;;7.14;49.43
70011;BME280;59543;37.950;-122.338;2023-02-23T01:43:31;100699.84;;;7.06;49.84
70011;BME280;59543;37.950;-122.338;2023-02-23T01:45:57;100687.56;;;7.04;49.55
70011;BME280;59543;37.950;-122.338;2023-02-23T01:48:27;100691.88;;;6.95;49.84
70011;BME280;59543;37.950;-122.338;2023-02-23T01:53:29;100691.16;;;6.82;50.48
70011;BME280;59543;37.950;-122.338;2023-02-23T01:56:01;100689.84;;;6.76;51.07
70011;BME280;59543;37.950;-122.338;2023-02-23T01:58:28;100690.09;;;6.73;51.13
70011;BME280;59543;37.950;-122.338;2023-02-23T02:00:56;100697.19;;;6.63;51.86
70011;BME280;59543;37.950;-122.338;2023-02-23T02:03:26;100699.97;;;6.61;51.93
70011;BME280;59543;37.950;-122.338;2023-02-23T02:05:53;100697.28;;;6.61;52.48
70011;BME280;59543;37.950;-122.338;2023-02-23T02:08:19;100694.41;;;6.53;52.85
70011;BME280;59543;37.950;-122.338;2023-02-23T02:10:49;100704.84;;;6.56;52.97
70011;BME280;59543;37.950;-122.338;2023-02-23T02:13:20;100701.25;;;6.35;53.89
70011;BME280;59543;37.950;-122.338;2023-02-23T02:21:29;100705.34;;;6.39;54.10
70011;BME280;59543;37.950;-122.338;2023-02-23T02:24:10;100715.31;;;6.37;53.96
70011;BME280;59543;37.950;-122.338;2023-02-23T02:26:54;100706.94;;;6.30;54.22
70011;BME280;59543;37.950;-122.338;2023-02-23T02:37:08;100714.34;;;6.04;55.41
70011;BME280;59543;37.950;-122.338;2023-02-23T02:39:52;100716.75;;;6.07;55.75
70011;BME280;59543;37.950;-122.338;2023-02-23T02:47:42;100708.75;;;6.07;57.02
70011;BME280;59543;37.950;-122.338;2023-02-23T02:50:13;100714.47;;;6.03;57.52
70011;BME280;59543;37.950;-122.338;2023-02-23T02:52:46;100711.19;;;5.99;57.20
70011;BME280;59543;37.950;-122.338;2023-02-23T02:55:16;100712.53;;;5.93;58.08
70011;BME280;59543;37.950;-122.338;2023-02-23T02:57:45;100714.09;;;5.96;57.94
70011;BME280;59543;37.950;-122.338;2023-02-23T03:00:30;100713.63;;;6.02;57.42
70011;BME280;59543;37.950;-122.338;2023-02-23T03:03:28;100721.13;;;5.97;57.87
70011;BME280;59543;37.950;-122.338;2023-02-23T03:06:12;100720.25;;;5.85;58.31
70011;BME280;59543;37.950;-122.338;2023-02-23T03:11:48;100728.91;;;6.00;57.62
70011;BME280;59543;37.950;-122.338;2023-02-23T03:14:51;100734.78;;;5.92;58.87
70011;BME280;59543;37.950;-122.338;2023-02-23T03:17:45;100735.16;;;5.88;59.29
70011;BME280;59543;37.950;-122.338;2023-02-23T03:20:36;100726.41;;;5.86;59.37
70011;BME280;59543;37.950;-122.338;2023-02-23T03:23:37;100730.81;;;5.87;59.80
70011;BME280;59543;37.950;-122.338;2023-02-23T03:26:31;100737.41;;;5.94;59.36
70011;BME280;59543;37.950;-122.338;2023-02-23T03:29:23;100741.97;;;5.81;59.85
70011;BME280;59543;37.950;-122.338;2023-02-23T03:35:08;100738.41;;;5.69;60.72
70011;BME280;59543;37.950;-122.338;2023-02-23T03:38:15;100753.56;;;5.68;60.79
70011;BME280;59543;37.950;-122.338;2023-02-23T03:41:00;100749.16;;;5.56;61.47
70011;BME280;59543;37.950;-122.338;2023-02-23T03:43:48;100755.75;;;5.63;62.02
70011;BME280;59543;37.950;-122.338;2023-02-23T03:46:35;100757.81;;;5.71;61.76
70011;BME280;59543;37.950;-122.338;2023-02-23T03:49:21;100761.38;;;5.47;62.38
70011;BME280;59543;37.950;-122.338;2023-02-23T03:52:10;100760.94;;;5.54;62.15
70011;BME280;59543;37.950;-122.338;2023-02-23T03:54:58;100762.00;;;5.51;62.27
70011;BME280;59543;37.950;-122.338;2023-02-23T03:57:45;100766.09;;;5.44;62.54
70011;BME280;59543;37.950;-122.338;2023-02-23T04:00:32;100759.34;;;5.51;62.80
70011;BME280;59543;37.950;-122.338;2023-02-23T04:03:17;100766.72;;;5.47;63.25
70011;BME280;59543;37.950;-122.338;2023-02-23T04:06:02;100763.56;;;5.42;63.15
70011;BME280;59543;37.950;-122.338;2023-02-23T04:08:47;100768.53;;;5.47;63.36
70011;BME280;59543;37.950;-122.338;2023-02-23T04:11:36;100771.25;;;5.58;63.30
70011;BME280;59543;37.950;-122.338;2023-02-23T04:14:34;100768.72;;;5.57;62.27
70011;BME280;59543;37.950;-122.338;2023-02-23T04:17:02;100774.84;;;5.46;62.43
70011;BME280;59543;37.950;-122.338;2023-02-23T04:19:28;100777.78;;;5.54;62.45
70011;BME280;59543;37.950;-122.338;2023-02-23T04:21:54;100785.44;;;5.59;63.42
70011;BME280;59543;37.950;-122.338;2023-02-23T04:24:20;100789.31;;;5.55;62.36
70011;BME280;59543;37.950;-122.338;2023-02-23T04:26:46;100789.78;;;5.48;62.62
70011;BME280;59543;37.950;-122.338;2023-02-23T04:29:12;100786.25;;;5.48;63.19
70011;BME280;59543;37.950;-122.338;2023-02-23T04:31:38;100787.19;;;5.36;62.97
70011;BME280;59543;37.950;-122.338;2023-02-23T04:34:06;100779.09;;;5.48;63.40
70011;BME280;59543;37.950;-122.338;2023-02-23T04:36:32;100788.41;;;5.43;63.97
70011;BME280;59543;37.950;-122.338;2023-02-23T04:38:57;100788.13;;;5.35;63.51
70011;BME280;59543;37.950;-122.338;2023-02-23T04:41:23;100796.81;;;5.25;64.18
70011;BME280;59543;37.950;-122.338;2023-02-23T04:43:49;100786.38;;;5.22;64.41
70011;BME280;59543;37.950;-122.338;2023-02-23T04:46:15;100799.25;;;5.28;64.63
70011;BME280;59543;37.950;-122.338;2023-02-23T04:48:41;100796.13;;;5.35;64.42
70011;BME280;59543;37.950;-122.338;2023-02-23T04:51:06;100804.19;;;5.46;63.92
70011;BME280;59543;37.950;-122.338;2023-02-23T04:53:32;100802.97;;;5.39;64.42
70011;BME280;59543;37.950;-122.338;2023-02-23T04:55:58;100800.06;;;5.42;64.35
70011;BME280;59543;37.950;-122.338;2023-02-23T04:58:24;100805.84;;;5.36;64.69
70011;BME280;59543;37.950;-122.338;2023-02-23T05:00:51;100804.03;;;5.36;64.42
70011;BME280;59543;37.950;-122.338;2023-02-23T05:03:17;100813.63;;;5.39;65.32
70011;BME280;59543;37.950;-122.338;2023-02-23T05:05:42;100815.00;;;5.56;64.22
70011;BME280;59543;37.950;-122.338;2023-02-23T05:08:09;100812.13;;;5.59;63.71
70011;BME280;59543;37.950;-122.338;2023-02-23T05:10:35;100817.59;;;5.57;64.13
70011;BME280;59543;37.950;-122.338;2023-02-23T05:13:01;100819.28;;;5.58;64.70
70011;BME280;59543;37.950;-122.338;2023-02-23T05:15:27;100817.50;;;5.70;64.57
70011;BME280;59543;37.950;-122.338;2023-02-23T05:17:53;100816.19;;;5.76;64.08
70011;BME280;59543;37.950;-122.338;2023-02-23T05:20:20;100823.47;;;5.73;64.01
70011;BME280;59543;37.950;-122.338;2023-02-23T05:22:46;100819.63;;;5.54;65.32
70011;BME280;59543;37.950;-122.338;2023-02-23T05:25:12;100816.44;;;5.48;65.18
70011;BME280;59543;37.950;-122.338;2023-02-23T05:27:38;100826.75;;;5.53;64.49
70011;BME280;59543;37.950;-122.338;2023-02-23T05:30:05;100823.88;;;5.56;64.97
70011;BME280;59543;37.950;-122.338;2023-02-23T05:32:32;100824.75;;;5.57;64.70
70011;BME280;59543;37.950;-122.338;2023-02-23T05:34:59;100832.47;;;5.48;64.80
70011;BME280;59543;37.950;-122.338;2023-02-23T05:37:25;100830.19;;;5.55;64.75
70011;BME280;59543;37.950;-122.338;2023-02-23T05:39:51;100835.28;;;5.34;65.56
70011;BME280;59543;37.950;-122.338;2023-02-23T05:42:17;100834.97;;;5.39;64.95
70011;BME280;59543;37.950;-122.338;2023-02-23T05:44:43;100829.97;;;5.34;65.37
70011;BME280;59543;37.950;-122.338;2023-02-23T05:47:09;100838.97;;;5.44;65.09
70011;BME280;59543;37.950;-122.338;2023-02-23T05:49:35;100846.31;;;5.30;66.19
70011;BME280;59543;37.950;-122.338;2023-02-23T05:52:01;100841.34;;;5.12;67.56
70011;BME280;59543;37.950;-122.338;2023-02-23T05:54:27;100843.75;;;5.28;66.32
70011;BME280;59543;37.950;-122.338;2023-02-23T05:56:53;100843.78;;;5.15;66.97
70011;BME280;59543;37.950;-122.338;2023-02-23T05:59:19;100838.97;;;5.20;66.58
70011;BME280;59543;37.950;-122.338;2023-02-23T06:01:44;100839.31;;;5.16;67.26
70011;BME280;59543;37.950;-122.338;2023-02-23T06:04:10;100839.63;;;5.11;67.09
70011;BME280;59543;37.950;-122.338;2023-02-23T06:06:36;100846.84;;;5.22;67.61
70011;BME280;59543;37.950;-122.338;2023-02-23T06:09:02;100851.34;;;5.21;67.48
70011;BME280;59543;37.950;-122.338;2023-02-23T06:11:28;100844.13;;;5.11;67.60
70011;BME280;59543;37.950;-122.338;2023-02-23T06:13:56;100841.13;;;5.15;67.25
70011;BME280;59543;37.950;-122.338;2023-02-23T06:16:23;100848.16;;;5.16;66.91
70011;BME280;59543;37.950;-122.338;2023-02-23T06:18:49;100846.91;;;5.09;67.40
70011;BME280;59543;37.950;-122.338;2023-02-23T06:21:15;100852.56;;;5.04;66.42
70011;BME280;59543;37.950;-122.338;2023-02-23T06:23:41;100849.88;;;5.04;66.72
70011;BME280;59543;37.950;-122.338;2023-02-23T06:26:07;100848.44;;;5.00;65.74
70011;BME280;59543;37.950;-122.338;2023-02-23T06:28:33;100855.66;;;4.98;66.52
70011;BME280;59543;37.950;-122.338;2023-02-23T06:30:59;100868.59;;;4.92;67.02
70011;BME280;59543;37.950;-122.338;2023-02-23T06:33:25;100866.16;;;4.89;67.17
70011;BME280;59543;37.950;-122.338;2023-02-23T06:35:51;100857.09;;;4.91;66.53
70011;BME280;59543;37.950;-122.338;2023-02-23T06:38:19;100865.53;;;4.85;66.30
70011;BME280;59543;37.950;-122.338;2023-02-23T06:40:44;100873.09;;;4.78;67.60
70011;BME280;59543;37.950;-122.338;2023-02-23T06:43:10;100866.91;;;4.78;66.69
70011;BME280;59543;37.950;-122.338;2023-02-23T06:45:36;100870.09;;;4.83;66.35
70011;BME280;59543;37.950;-122.338;2023-02-23T06:48:02;100868.72;;;4.77;65.97
70011;BME280;59543;37.950;-122.338;2023-02-23T06:50:28;100877.25;;;4.70;66.48
70011;BME280;59543;37.950;-122.338;2023-02-23T06:52:54;100882.38;;;4.60;66.86
70011;BME280;59543;37.950;-122.338;2023-02-23T06:55:22;100875.25;;;4.61;66.20
70011;BME280;59543;37.950;-122.338;2023-02-23T06:57:48;100886.19;;;4.69;66.77
70011;BME280;59543;37.950;-122.338;2023-02-23T07:00:14;100869.38;;;4.55;66.89
70011;BME280;59543;37.950;-122.338;2023-02-23T07:02:41;100873.00;;;4.67;65.69
70011;BME280;59543;37.950;-122.338;2023-02-23T07:05:09;100869.34;;;4.81;66.44
70011;BME280;59543;37.950;-122.338;2023-02-23T07:07:35;100865.59;;;4.84;65.84
70011;BME280;59543;37.950;-122.338;2023-02-23T07:10:01;100867.44;;;4.70;66.00
70011;BME280;59543;37.950;-122.338;2023-02-23T07:12:29;100877.25;;;4.70;65.24
70011;BME280;59543;37.950;-122.338;2023-02-23T07:14:55;100868.59;;;4.66;65.39
70011;BME280;59543;37.950;-122.338;2023-02-23T07:17:21;100873.72;;;4.69;66.03
70011;BME280;59543;37.950;-122.338;2023-02-23T07:19:47;100869.16;;;4.58;65.61
70011;BME280;59543;37.950;-122.338;2023-02-23T07:22:13;100869.81;;;4.49;66.70
70011;BME280;59543;37.950;-122.338;2023-02-23T07:24:39;100868.41;;;4.44;66.26
70011;BME280;59543;37.950;-122.338;2023-02-23T07:27:05;100870.34;;;4.54;66.71
70011;BME280;59543;37.950;-122.338;2023-02-23T07:29:30;100870.34;;;4.54;65.65
70011;BME280;59543;37.950;-122.338;2023-02-23T07:31:56;100868.81;;;4.63;65.84
70011;BME280;59543;37.950;-122.338;2023-02-23T07:34:22;100870.44;;;4.53;65.73
70011;BME280;59543;37.950;-122.338;2023-02-23T07:36:48;100860.66;;;4.41;66.10
70011;BME280;59543;37.950;-122.338;2023-02-23T07:39:14;100865.00;;;4.42;65.81
70011;BME280;59543;37.950;-122.338;2023-02-23T07:41:40;100869.19;;;4.46;65.58
70011;BME280;59543;37.950;-122.338;2023-02-23T07:44:06;100873.63;;;4.32;64.82
70011;BME280;59543;37.950;-122.338;2023-02-23T07:46:32;100871.94;;;4.31;65.44
70011;BME280;59543;37.950;-122.338;2023-02-23T07:48:57;100876.19;;;4.21;65.11
70011;BME280;59543;37.950;-122.338;2023-02-23T07:51:23;100878.41;;;4.15;65.10
70011;BME280;59543;37.950;-122.338;2023-02-23T07:53:49;100880.22;;;4.14;65.98
70011;BME280;59543;37.950;-122.338;2023-02-23T07:56:15;100877.00;;;3.96;66.91
70011;BME280;59543;37.950;-122.338;2023-02-23T07:58:41;100887.00;;;3.93;67.12
70011;BME280;59543;37.950;-122.338;2023-02-23T08:01:08;100887.41;;;3.86;67.36
70011;BME280;59543;37.950;-122.338;2023-02-23T08:03:34;100898.22;;;3.71;67.34
70011;BME280;59543;37.950;-122.338;2023-02-23T08:06:00;100895.00;;;3.65;67.61
70011;BME280;59543;37.950;-122.338;2023-02-23T08:08:26;100899.91;;;3.72;66.57
70011;BME280;59543;37.950;-122.338;2023-02-23T08:11:02;100891.56;;;3.63;67.17
70011;BME280;59543;37.950;-122.338;2023-02-23T08:13:28;100893.50;;;3.61;67.68
70011;BME280;59543;37.950;-122.338;2023-02-23T08:15:55;100895.81;;;3.80;66.06
70011;BME280;59543;37.950;-122.338;2023-02-23T08:18:21;100893.56;;;3.87;66.05
70011;BME280;59543;37.950;-122.338;2023-02-23T08:20:47;100893.13;;;3.80;65.53
70011;BME280;59543;37.950;-122.338;2023-02-23T08:23:13;100893.16;;;3.93;65.94
70011;BME280;59543;37.950;-122.338;2023-02-23T08:25:39;100888.97;;;4.16;64.76
70011;BME280;59543;37.950;-122.338;2023-02-23T08:28:04;100891.50;;;4.05;64.49
70011;BME280;59543;37.950;-122.338;2023-02-23T08:30:31;100889.09;;;3.87;65.91
70011;BME280;59543;37.950;-122.338;2023-02-23T08:32:57;100889.94;;;3.88;64.81
70011;BME280;59543;37.950;-122.338;2023-02-23T08:35:24;100885.38;;;3.90;65.12
70011;BME280;59543;37.950;-122.338;2023-02-23T08:37:49;100891.69;;;3.89;64.99
70011;BME280;59543;37.950;-122.338;2023-02-23T08:40:15;100890.41;;;3.95;64.08
70011;BME280;59543;37.950;-122.338;2023-02-23T08:42:42;100885.63;;;4.00;64.23
70011;BME280;59543;37.950;-122.338;2023-02-23T08:45:09;100881.88;;;3.89;64.57
70011;BME280;59543;37.950;-122.338;2023-02-23T08:47:35;100880.19;;;3.88;64.80
70011;BME280;59543;37.950;-122.338;2023-02-23T08:50:01;100890.28;;;3.83;64.97
70011;BME280;59543;37.950;-122.338;2023-02-23T08:52:27;100883.53;;;3.78;64.91
70011;BME280;59543;37.950;-122.338;2023-02-23T08:54:53;100882.34;;;3.69;65.39
70011;BME280;59543;37.950;-122.338;2023-02-23T08:57:20;100890.56;;;3.79;65.93
70011;BME280;59543;37.950;-122.338;2023-02-23T08:59:46;100894.84;;;3.81;65.65
70011;BME280;59543;37.950;-122.338;2023-02-23T09:02:13;100893.06;;;3.95;65.39
70011;BME280;59543;37.950;-122.338;2023-02-23T09:04:39;100895.22;;;4.02;65.58
70011;BME280;59543;37.950;-122.338;2023-02-23T09:07:17;100889.47;;;4.08;65.28
70011;BME280;59543;37.950;-122.338;2023-02-23T09:09:43;100897.88;;;4.15;65.65
70011;BME280;59543;37.950;-122.338;2023-02-23T09:12:09;100899.69;;;4.15;64.81
70011;BME280;59543;37.950;-122.338;2023-02-23T09:14:35;100898.31;;;4.09;65.66
70011;BME280;59543;37.950;-122.338;2023-02-23T09:17:01;100899.13;;;3.97;66.44
70011;BME280;59543;37.950;-122.338;2023-02-23T09:19:27;100902.56;;;3.99;65.93
70011;BME280;59543;37.950;-122.338;2023-02-23T09:21:53;100912.91;;;4.03;66.23
70011;BME280;59543;37.950;-122.338;2023-02-23T09:24:19;100921.78;;;3.89;66.25
70011;BME280;59543;37.950;-122.338;2023-02-23T09:26:46;100918.28;;;3.62;67.79
70011;BME280;59543;37.950;-122.338;2023-02-23T09:29:12;100919.84;;;3.79;67.26
70011;BME280;59543;37.950;-122.338;2023-02-23T09:31:38;100924.00;;;3.83;66.71
70011;BME280;59543;37.950;-122.338;2023-02-23T09:34:04;100922.59;;;3.77;66.56
70011;BME280;59543;37.950;-122.338;2023-02-23T09:36:30;100925.06;;;3.80;66.65
70011;BME280;59543;37.950;-122.338;2023-02-23T09:38:56;100925.06;;;3.80;66.26
70011;BME280;59543;37.950;-122.338;2023-02-23T09:43:49;100923.91;;;3.84;67.09
70011;BME280;59543;37.950;-122.338;2023-02-23T09:48:57;100914.66;;;3.90;66.31
70011;BME280;59543;37.950;-122.338;2023-02-23T09:51:25;100922.59;;;4.04;65.85
70011;BME280;59543;37.950;-122.338;2023-02-23T09:53:55;100914.47;;;4.06;65.87
70011;BME280;59543;37.950;-122.338;2023-02-23T09:58:48;100910.25;;;4.03;65.85
70011;BME280;59543;37.950;-122.338;2023-02-23T10:03:43;100913.00;;;4.02;65.93
70011;BME280;59543;37.950;-122.338;2023-02-23T10:06:15;100902.75;;;3.96;66.00
70011;BME280;59543;37.950;-122.338;2023-02-23T10:11:25;100908.19;;;3.94;65.09
70011;BME280;59543;37.950;-122.338;2023-02-23T10:18:59;100897.25;;;4.11;63.60
70011;BME280;59543;37.950;-122.338;2023-02-23T10:21:37;100895.44;;;4.12;64.15
70011;BME280;59543;37.950;-122.338;2023-02-23T10:24:16;100894.56;;;3.99;64.40
70011;BME280;59543;37.950;-122.338;2023-02-23T10:26:48;100900.84;;;3.98;64.16
70011;BME280;59543;37.950;-122.338;2023-02-23T10:31:45;100897.19;;;3.86;65.15
70011;BME280;59543;37.950;-122.338;2023-02-23T10:34:14;100896.88;;;3.90;65.89
70011;BME280;59543;37.950;-122.338;2023-02-23T10:36:45;100897.38;;;3.70;65.91
70011;BME280;59543;37.950;-122.338;2023-02-23T10:39:14;100902.50;;;3.73;65.85
70011;BME280;59543;37.950;-122.338;2023-02-23T10:41:40;100896.00;;;3.77;65.38
70011;BME280;59543;37.950;-122.338;2023-02-23T10:44:10;100896.09;;;3.76;65.70
70011;BME280;59543;37.950;-122.338;2023-02-23T10:46:40;100893.63;;;3.73;65.87
70011;BME280;59543;37.950;-122.338;2023-02-23T10:49:08;100895.69;;;3.55;66.47
70011;BME280;59543;37.950;-122.338;2023-02-23T10:51:40;100888.50;;;3.42;67.50
70011;BME280;59543;37.950;-122.338;2023-02-23T10:56:51;100890.53;;;3.39;66.97
70011;BME280;59543;37.950;-122.338;2023-02-23T10:59:18;100893.91;;;3.28;67.24
70011;BME280;59543;37.950;-122.338;2023-02-23T11:01:45;100901.72;;;2.88;68.19
70011;BME280;59543;37.950;-122.338;2023-02-23T11:06:43;100887.31;;;2.64;69.19
70011;BME280;59543;37.950;-122.338;2023-02-23T11:11:41;100882.75;;;2.66;69.17
70011;BME280;59543;37.950;-122.338;2023-02-23T11:14:22;100878.94;;;2.70;69.15
70011;BME280;59543;37.950;-122.338;2023-02-23T11:16:49;100876.03;;;2.60;69.79
70011;BME280;59543;37.950;-122.338;2023-02-23T11:19:20;100873.72;;;2.40;70.25
70011;BME280;59543;37.950;-122.338;2023-02-23T11:21:49;100870.81;;;2.44;70.35
70011;BME280;59543;37.950;-122.338;2023-02-23T11:26:52;100874.75;;;2.37;70.58
70011;BME280;59543;37.950;-122.338;2023-02-23T11:32:42;100879.75;;;2.13;71.96
70011;BME280;59543;37.950;-122.338;2023-02-23T11:35:09;100883.84;;;2.19;71.67
70011;BME280;59543;37.950;-122.338;2023-02-23T11:37:34;100887.72;;;1.83;72.84
70011;BME280;59543;37.950;-122.338;2023-02-23T11:40:07;100881.50;;;1.84;72.96
70011;BME280;59543;37.950;-122.338;2023-02-23T11:42:50;100881.50;;;1.98;72.81
70011;BME280;59543;37.950;-122.338;2023-02-23T11:45:18;100881.88;;;1.92;72.72
70011;BME280;59543;37.950;-122.338;2023-02-23T11:47:51;100892.31;;;1.95;72.89
70011;BME280;59543;37.950;-122.338;2023-02-23T11:52:47;100895.19;;;2.06;72.44
70011;BME280;59543;37.950;-122.338;2023-02-23T11:55:15;100895.59;;;2.15;71.96
70011;BME280;59543;37.950;-122.338;2023-02-23T11:57:42;100889.16;;;2.19;71.91
70011;BME280;59543;37.950;-122.338;2023-02-23T12:00:09;100891.13;;;2.15;72.82
70011;BME280;59543;37.950;-122.338;2023-02-23T12:02:43;100897.88;;;2.21;72.47
70011;BME280;59543;37.950;-122.338;2023-02-23T12:05:45;100895.84;;;2.10;72.71
70011;BME280;59543;37.950;-122.338;2023-02-23T12:08:04;100899.91;;;2.01;73.36
70011;BME280;59543;37.950;-122.338;2023-02-23T12:11:04;100895.38;;;2.03;73.51
70011;BME280;59543;37.950;-122.338;2023-02-23T12:15:59;100894.69;;;2.00;73.54
70011;BME280;59543;37.950;-122.338;2023-02-23T12:21:00;100900.41;;;2.08;73.80
70011;BME280;59543;37.950;-122.338;2023-02-23T12:23:28;100898.78;;;2.05;73.94
70011;BME280;59543;37.950;-122.338;2023-02-23T12:26:03;100896.00;;;1.93;74.27
70011;BME280;59543;37.950;-122.338;2023-02-23T12:31:05;100900.41;;;2.08;73.88
70011;BME280;59543;37.950;-122.338;2023-02-23T12:33:39;100896.03;;;2.07;73.77
70011;BME280;59543;37.950;-122.338;2023-02-23T12:44:33;100887.28;;;1.91;73.71
70011;BME280;59543;37.950;-122.338;2023-02-23T12:49:45;100897.59;;;1.95;73.45
70011;BME280;59543;37.950;-122.338;2023-02-23T12:52:15;100897.91;;;1.91;73.66
70011;BME280;59543;37.950;-122.338;2023-02-23T12:54:43;100896.56;;;1.83;74.67
70011;BME280;59543;37.950;-122.338;2023-02-23T12:59:52;100896.94;;;1.92;75.51
70011;BME280;59543;37.950;-122.338;2023-02-23T13:05:22;100896.09;;;2.36;76.55
70011;BME280;59543;37.950;-122.338;2023-02-23T13:08:40;100901.06;;;2.56;76.11
70011;BME280;59543;37.950;-122.338;2023-02-23T13:10:49;100897.53;;;2.56;76.44
70011;BME280;59543;37.950;-122.338;2023-02-23T13:13:37;100900.00;;;2.73;76.04
70011;BME280;59543;37.950;-122.338;2023-02-23T13:31:32;100917.28;;;2.80;76.17
70011;BME280;59543;37.950;-122.338;2023-02-23T13:33:59;100909.22;;;2.82;76.27
70011;BME280;59543;37.950;-122.338;2023-02-23T13:36:26;100910.25;;;2.79;76.90
70011;BME280;59543;37.950;-122.338;2023-02-23T13:44:02;100912.38;;;2.74;76.56
70011;BME280;59543;37.950;-122.338;2023-02-23T13:46:49;100907.91;;;2.74;76.99
70011;BME280;59543;37.950;-122.338;2023-02-23T13:52:09;100909.91;;;2.71;77.14
70011;BME280;59543;37.950;-122.338;2023-02-23T13:54:38;100912.56;;;2.71;77.14
70011;BME280;59543;37.950;-122.338;2023-02-23T13:57:16;100908.34;;;2.67;77.08
70011;BME280;59543;37.950;-122.338;2023-02-23T13:59:43;100906.38;;;2.70;76.87
70011;BME280;59543;37.950;-122.338;2023-02-23T14:02:21;100900.19;;;2.70;76.92
70011;BME280;59543;37.950;-122.338;2023-02-23T14:04:48;100908.44;;;2.80;76.72
70011;BME280;59543;37.950;-122.338;2023-02-23T14:07:31;100916.72;;;2.89;76.78
70011;BME280;59543;37.950;-122.338;2023-02-23T14:09:58;100926.78;;;2.98;76.30
70011;BME280;59543;37.950;-122.338;2023-02-23T14:15:45;100928.09;;;3.06;75.73
70011;BME280;59543;37.950;-122.338;2023-02-23T14:18:02;100924.00;;;3.00;76.11
70011;BME280;59543;37.950;-122.338;2023-02-23T14:25:45;100930.47;;;3.10;75.92
70011;BME280;59543;37.950;-122.338;2023-02-23T14:31:18;100926.84;;;3.11;75.21
70011;BME280;59543;37.950;-122.338;2023-02-23T14:49:21;100937.25;;;3.43;74.60
70011;BME280;59543;37.950;-122.338;2023-02-23T14:51:50;100929.63;;;3.51;75.26
70011;BME280;59543;37.950;-122.338;2023-02-23T14:56:46;100933.09;;;3.66;75.32
70011;BME280;59543;37.950;-122.338;2023-02-23T14:59:17;100933.13;;;3.79;75.06
70011;BME280;59543;37.950;-122.338;2023-02-23T15:01:45;100930.59;;;3.77;76.06
70011;BME280;59543;37.950;-122.338;2023-02-23T15:04:12;100934.88;;;3.80;76.12